Time;durP1;ratioP1;P1;durP2;ratioP2;P2;SDS_P1;SDS_P2;PMS_P1;PMS_P2;Temp;Humidity;BMP_temperature;BMP_pressure;BME280_temperature;BME280_humidity;BME280_pressure;Samples;Min_cycle;Max_cycle;Signal;HPM_P1;HPM_P2
2023/03/07 00:00:44;;;;;;;15.10;10.30;;;14.90;45.90;;;;;;4965462;28;20459;-80
2023/03/07 00:03:12;;;;;;;15.17;10.20;;;14.90;46.00;;;;;;4963318;28;20438;-80
2023/03/07 00:05:40;;;;;;;14.70;10.10;;;14.90;46.00;;;;;;4964737;28;20456;-80
2023/03/07 00:08:08;;;;;;;16.70;10.57;;;14.90;46.10;;;;;;4965457;28;20463;-81
2023/03/07 00:10:36;;;;;;;13.27;9.60;;;14.90;46.20;;;;;;4969434;28;20454;-80
2023/03/07 00:13:06;;;;;;;13.03;9.47;;;14.90;46.20;;;;;;4968666;28;20460;-81
2023/03/07 00:15:34;;;;;;;14.47;9.40;;;14.90;46.20;;;;;;4965485;28;20537;-80
2023/03/07 00:18:02;;;;;;;11.70;9.30;;;14.80;46.10;;;;;;4960866;28;20485;-81
2023/03/07 00:20:30;;;;;;;13.93;10.30;;;14.90;46.30;;;;;;4965152;28;20458;-81
2023/03/07 00:22:58;;;;;;;13.67;8.93;;;14.80;46.20;;;;;;4963378;28;20535;-81
2023/03/07 00:25:26;;;;;;;14.60;10.07;;;14.90;46.30;;;;;;4959010;28;20470;-80
2023/03/07 00:27:53;;;;;;;12.70;9.30;;;14.80;46.30;;;;;;4962448;28;20518;-80
2023/03/07 00:30:23;;;;;;;15.27;9.50;;;14.80;46.40;;;;;;4965073;28;20450;-81
2023/03/07 00:32:51;;;;;;;12.10;9.23;;;14.80;46.40;;;;;;4961638;28;20451;-81
2023/03/07 00:35:19;;;;;;;11.10;8.40;;;14.80;46.40;;;;;;4961498;28;20550;-81
2023/03/07 00:37:47;;;;;;;10.90;8.67;;;14.80;46.50;;;;;;4950336;28;20467;-80
2023/03/07 00:40:16;;;;;;;13.40;9.03;;;14.80;46.50;;;;;;4961856;28;20461;-80
2023/03/07 00:42:44;;;;;;;13.60;8.60;;;14.80;46.50;;;;;;4963648;28;20485;-80
2023/03/07 00:45:12;;;;;;;10.97;8.20;;;14.70;46.40;;;;;;4960580;28;20467;-81
2023/03/07 00:47:42;;;;;;;12.97;8.20;;;14.80;46.50;;;;;;4963552;28;20446;-81
2023/03/07 00:50:10;;;;;;;11.90;8.80;;;14.80;46.60;;;;;;4962290;28;20466;-80
2023/03/07 00:52:39;;;;;;;12.67;8.40;;;14.70;46.50;;;;;;4957309;28;20452;-80
2023/03/07 00:55:08;;;;;;;12.57;8.70;;;14.80;46.70;;;;;;4962436;28;20473;-80
2023/03/07 00:57:36;;;;;;;12.33;8.00;;;14.80;46.80;;;;;;4964229;28;20475;-80
2023/03/07 01:00:06;;;;;;;9.30;7.13;;;14.70;46.70;;;;;;4956008;28;20462;-80
2023/03/07 01:02:34;;;;;;;8.77;7.37;;;14.70;46.80;;;;;;4960900;28;20455;-80
2023/03/07 01:05:04;;;;;;;11.00;7.80;;;14.70;46.80;;;;;;4962205;28;20470;-80
2023/03/07 01:07:32;;;;;;;11.63;7.67;;;14.70;46.80;;;;;;4960994;28;20460;-80
2023/03/07 01:09:59;;;;;;;11.70;7.93;;;14.70;46.80;;;;;;4960854;28;20447;-81
2023/03/07 01:12:27;;;;;;;7.90;6.50;;;14.70;46.80;;;;;;4961945;28;20461;-81
2023/03/07 01:14:55;;;;;;;9.53;6.83;;;14.70;46.90;;;;;;4958079;28;20482;-80
2023/03/07 01:17:23;;;;;;;8.07;6.43;;;14.70;46.80;;;;;;4961213;28;20478;-79
2023/03/07 01:19:51;;;;;;;8.80;7.17;;;14.70;47.00;;;;;;4955012;28;20455;-81
2023/03/07 01:22:20;;;;;;;8.87;6.57;;;14.70;47.00;;;;;;4967486;28;20455;-81
2023/03/07 01:24:49;;;;;;;9.73;7.00;;;14.70;46.90;;;;;;4962724;28;20486;-81
2023/03/07 01:27:17;;;;;;;10.53;6.90;;;14.70;46.90;;;;;;4964866;28;20483;-80
2023/03/07 01:29:45;;;;;;;7.03;5.97;;;14.70;47.00;;;;;;4968566;28;20466;-81
2023/03/07 01:32:13;;;;;;;7.60;6.40;;;14.70;47.00;;;;;;4966849;28;20451;-82
2023/03/07 01:34:41;;;;;;;7.07;5.90;;;14.70;47.00;;;;;;4959544;28;20474;-79
2023/03/07 01:37:09;;;;;;;7.50;6.00;;;14.70;47.00;;;;;;4957556;28;20463;-79
2023/03/07 01:39:39;;;;;;;6.80;5.70;;;14.70;47.10;;;;;;4965819;28;20485;-81
2023/03/07 01:42:07;;;;;;;8.93;5.60;;;14.70;47.20;;;;;;4963102;28;20490;-81
2023/03/07 01:45:01;;;;;;;9.47;6.07;;;14.60;47.10;;;;;;4971644;28;20474;-82
2023/03/07 01:47:29;;;;;;;6.03;5.33;;;14.70;47.10;;;;;;4968500;28;20459;-82
2023/03/07 01:49:57;;;;;;;5.80;5.20;;;14.70;47.20;;;;;;4964703;28;20451;-81
2023/03/07 01:52:26;;;;;;;7.40;5.40;;;14.60;47.00;;;;;;4956563;28;20459;-81
2023/03/07 01:54:58;;;;;;;6.00;5.30;;;14.60;47.10;;;;;;4957481;28;20465;-82
2023/03/07 01:57:28;;;;;;;6.10;5.10;;;14.60;47.20;;;;;;4957022;28;20493;-82
2023/03/07 01:59:57;;;;;;;5.63;5.03;;;14.60;47.10;;;;;;4964130;28;20459;-81
2023/03/07 02:02:25;;;;;;;6.13;5.53;;;14.60;47.20;;;;;;4961105;28;20539;-82
2023/03/07 02:04:54;;;;;;;6.77;5.30;;;14.60;47.10;;;;;;4969326;28;20484;-82
2023/03/07 02:07:24;;;;;;;5.33;4.80;;;14.60;47.20;;;;;;4964984;28;20459;-82
2023/03/07 02:09:52;;;;;;;6.60;5.13;;;14.60;47.30;;;;;;4962842;28;20517;-81
2023/03/07 02:12:22;;;;;;;5.80;4.90;;;14.60;47.20;;;;;;4964306;28;20485;-82
2023/03/07 02:14:50;;;;;;;5.27;4.77;;;14.60;47.20;;;;;;4969338;28;20478;-82
2023/03/07 02:17:18;;;;;;;5.30;4.63;;;14.60;47.20;;;;;;4966233;28;20486;-81
2023/03/07 02:19:54;;;;;;;4.73;4.33;;;14.60;47.30;;;;;;4961097;28;20482;-81
2023/03/07 02:22:22;;;;;;;4.83;4.43;;;14.60;47.40;;;;;;4961725;28;20457;-81
2023/03/07 02:24:52;;;;;;;5.53;4.33;;;14.60;47.40;;;;;;4961939;28;20473;-81
2023/03/07 02:27:22;;;;;;;5.10;4.70;;;14.60;47.40;;;;;;4967213;28;20577;-81
2023/03/07 02:29:50;;;;;;;4.73;4.30;;;14.60;47.30;;;;;;4956061;28;20467;-82
2023/03/07 02:32:18;;;;;;;5.20;4.73;;;14.60;47.30;;;;;;4960429;28;20469;-81
2023/03/07 02:34:46;;;;;;;4.37;3.97;;;14.60;47.40;;;;;;4963185;28;20486;-81
2023/03/07 02:37:16;;;;;;;6.00;4.13;;;14.60;47.30;;;;;;4959925;28;20554;-81
2023/03/07 02:39:45;;;;;;;5.53;4.20;;;14.50;47.20;;;;;;4959701;28;20532;-80
2023/03/07 02:42:15;;;;;;;4.90;4.20;;;14.60;47.40;;;;;;4956546;28;20497;-82
2023/03/07 02:44:45;;;;;;;6.20;4.17;;;14.50;47.40;;;;;;4964210;28;20478;-81
2023/03/07 02:47:13;;;;;;;4.77;4.27;;;14.60;47.40;;;;;;4963005;28;20455;-81
2023/03/07 02:49:41;;;;;;;4.27;3.97;;;14.60;47.40;;;;;;4958627;28;20451;-81
2023/03/07 02:52:09;;;;;;;4.03;3.63;;;14.50;47.40;;;;;;4961286;28;20458;-82
2023/03/07 02:54:37;;;;;;;4.63;3.83;;;14.50;47.40;;;;;;4964151;28;20557;-81
2023/03/07 02:57:05;;;;;;;3.93;3.50;;;14.50;47.30;;;;;;4965784;28;20541;-81
2023/03/07 02:59:33;;;;;;;4.03;3.60;;;14.50;47.40;;;;;;4962567;28;20541;-82
2023/03/07 03:02:02;;;;;;;3.57;3.13;;;14.50;47.40;;;;;;4964837;28;20456;-81
2023/03/07 03:04:30;;;;;;;3.70;3.40;;;14.50;47.50;;;;;;4962579;28;20574;-82
2023/03/07 03:06:58;;;;;;;3.97;3.50;;;14.50;47.50;;;;;;4968995;28;20509;-82
2023/03/07 03:09:26;;;;;;;4.10;3.00;;;14.50;47.50;;;;;;4963046;28;20451;-82
2023/03/07 03:11:53;;;;;;;3.30;3.00;;;14.50;47.50;;;;;;4964847;28;20479;-82
2023/03/07 03:14:21;;;;;;;3.70;3.20;;;14.50;47.50;;;;;;4970437;28;20477;-82
2023/03/07 03:16:51;;;;;;;3.33;3.13;;;14.50;47.50;;;;;;4963059;28;20523;-82
2023/03/07 03:19:20;;;;;;;3.00;2.80;;;14.50;47.40;;;;;;4960318;28;20471;-82
2023/03/07 03:21:48;;;;;;;3.23;2.93;;;14.40;47.40;;;;;;4960712;28;20457;-81
2023/03/07 03:24:16;;;;;;;3.10;2.80;;;14.50;47.50;;;;;;4964329;28;20462;-81
2023/03/07 03:26:44;;;;;;;3.13;2.93;;;14.40;47.40;;;;;;4965167;28;20482;-81
2023/03/07 03:29:12;;;;;;;3.03;2.83;;;14.40;47.50;;;;;;4962187;28;20453;-81
2023/03/07 03:31:40;;;;;;;3.17;2.97;;;14.40;47.60;;;;;;4965773;28;20455;-81
2023/03/07 03:34:08;;;;;;;3.00;2.80;;;14.40;47.60;;;;;;4966743;28;20452;-81
2023/03/07 03:36:37;;;;;;;3.20;3.00;;;14.40;47.60;;;;;;4959559;28;20541;-82
2023/03/07 03:39:09;;;;;;;2.70;2.50;;;14.30;47.50;;;;;;4963917;28;20469;-81
2023/03/07 03:41:37;;;;;;;2.60;2.50;;;14.30;47.60;;;;;;4967020;28;21153;-81
2023/03/07 03:44:05;;;;;;;2.27;2.17;;;14.30;47.60;;;;;;4963070;28;20458;-81
2023/03/07 03:46:33;;;;;;;3.47;2.00;;;14.30;47.60;;;;;;4963798;28;20546;-82
2023/03/07 03:49:02;;;;;;;2.80;2.57;;;14.30;47.60;;;;;;4966886;28;20450;-81
2023/03/07 03:51:30;;;;;;;2.80;2.60;;;14.30;47.60;;;;;;4957933;28;20470;-81
2023/03/07 03:53:59;;;;;;;2.93;2.73;;;14.20;47.60;;;;;;4962736;28;20450;-80
2023/03/07 03:56:28;;;;;;;2.43;2.27;;;14.20;47.70;;;;;;4960453;28;20471;-82
2023/03/07 03:58:56;;;;;;;2.30;2.20;;;14.30;47.70;;;;;;4961816;28;20485;-81
2023/03/07 04:01:26;;;;;;;2.40;2.20;;;14.20;47.70;;;;;;4968577;28;20457;-80
2023/03/07 04:03:54;;;;;;;2.20;2.10;;;14.20;47.80;;;;;;4972224;28;20514;-80
2023/03/07 04:06:23;;;;;;;2.90;2.10;;;14.20;47.80;;;;;;4963798;28;20455;-81
2023/03/07 04:08:51;;;;;;;3.87;2.30;;;14.20;47.70;;;;;;4962553;28;20455;-81
2023/03/07 04:11:21;;;;;;;4.20;2.50;;;14.20;47.70;;;;;;4962520;28;20483;-81
2023/03/07 04:13:49;;;;;;;2.27;2.13;;;14.20;47.70;;;;;;4963241;28;20465;-81
2023/03/07 04:16:17;;;;;;;3.13;2.00;;;14.20;47.80;;;;;;4961738;28;20530;-80
2023/03/07 04:18:45;;;;;;;3.50;2.00;;;14.10;47.70;;;;;;4967229;28;20478;-82
2023/03/07 04:21:13;;;;;;;2.50;2.00;;;14.10;47.60;;;;;;4962059;28;20470;-81
2023/03/07 04:23:41;;;;;;;2.00;1.90;;;14.10;47.70;;;;;;4962414;28;20457;-82
2023/03/07 04:26:10;;;;;;;3.77;1.93;;;14.10;47.80;;;;;;4967439;28;20476;-81
2023/03/07 04:28:43;;;;;;;2.37;2.17;;;14.10;47.60;;;;;;4965420;28;20455;-82
2023/03/07 04:31:12;;;;;;;1.80;1.70;;;14.10;47.70;;;;;;4964790;28;20449;-82
2023/03/07 04:33:39;;;;;;;2.07;1.80;;;14.00;47.70;;;;;;4965143;28;20458;-82
2023/03/07 04:36:08;;;;;;;3.23;1.97;;;14.00;47.60;;;;;;4962488;28;20475;-82
2023/03/07 04:38:37;;;;;;;3.97;1.70;;;14.00;47.70;;;;;;4967833;28;20455;-82
2023/03/07 04:41:05;;;;;;;1.77;1.67;;;14.00;47.70;;;;;;4960784;28;20493;-82
2023/03/07 04:43:33;;;;;;;3.07;1.87;;;14.00;47.60;;;;;;4962514;28;20479;-82
2023/03/07 04:46:03;;;;;;;1.93;1.80;;;14.00;47.70;;;;;;4964418;28;20470;-82
2023/03/07 04:48:31;;;;;;;1.70;1.60;;;14.00;47.80;;;;;;4963533;28;20451;-81
2023/03/07 04:50:59;;;;;;;3.23;1.53;;;14.00;47.70;;;;;;4968802;28;20439;-82
2023/03/07 04:53:27;;;;;;;3.23;1.50;;;14.00;47.70;;;;;;4972276;28;20447;-81
2023/03/07 04:55:58;;;;;;;2.60;1.80;;;13.90;47.70;;;;;;4963055;28;20466;-82
2023/03/07 04:58:26;;;;;;;2.60;1.70;;;13.90;47.70;;;;;;4961477;28;20455;-81
2023/03/07 05:00:55;;;;;;;1.50;1.40;;;13.90;47.70;;;;;;4966237;28;20589;-83
2023/03/07 05:03:25;;;;;;;3.30;1.60;;;13.90;47.70;;;;;;4964548;28;20507;-81
2023/03/07 05:05:53;;;;;;;1.90;1.80;;;13.90;47.60;;;;;;4963535;28;20514;-82
2023/03/07 05:08:22;;;;;;;4.10;2.30;;;13.90;47.70;;;;;;4962732;28;20478;-82
2023/03/07 05:10:50;;;;;;;1.73;1.30;;;13.90;47.80;;;;;;4966105;28;20486;-81
2023/03/07 05:13:18;;;;;;;1.60;1.50;;;13.90;47.60;;;;;;4958363;28;20459;-81
2023/03/07 05:15:50;;;;;;;2.00;1.50;;;13.90;47.60;;;;;;4968412;28;20484;-82
2023/03/07 05:18:19;;;;;;;2.87;1.90;;;13.90;47.70;;;;;;4959754;28;20549;-81
2023/03/07 05:20:48;;;;;;;2.90;1.10;;;13.90;47.70;;;;;;4964646;28;20470;-81
2023/03/07 05:23:17;;;;;;;1.97;1.30;;;13.90;47.70;;;;;;4962356;28;20458;-81
2023/03/07 05:25:45;;;;;;;1.80;1.70;;;13.80;47.70;;;;;;4964473;28;20473;-81
2023/03/07 05:28:15;;;;;;;2.73;1.50;;;13.80;47.60;;;;;;4963220;28;20459;-81
2023/03/07 05:30:43;;;;;;;3.43;1.70;;;13.80;47.70;;;;;;4961402;28;20450;-82
2023/03/07 05:33:12;;;;;;;2.10;1.40;;;13.80;47.70;;;;;;4964660;28;20963;-81
2023/03/07 05:35:40;;;;;;;1.50;1.40;;;13.80;47.70;;;;;;4968590;28;20488;-83
2023/03/07 05:38:10;;;;;;;1.90;1.30;;;13.80;47.80;;;;;;4967509;28;20468;-80
2023/03/07 05:40:39;;;;;;;1.70;1.50;;;13.80;47.70;;;;;;4958972;28;20479;-80
2023/03/07 05:43:07;;;;;;;3.20;1.60;;;13.80;47.80;;;;;;4951409;28;20467;-81
2023/03/07 05:45:35;;;;;;;4.20;1.67;;;13.80;47.70;;;;;;4958061;28;20552;-81
2023/03/07 05:48:03;;;;;;;2.27;1.30;;;13.80;47.70;;;;;;4963783;28;20458;-81
2023/03/07 05:50:31;;;;;;;1.60;1.50;;;13.80;47.80;;;;;;4958034;28;20538;-81
2023/03/07 05:52:59;;;;;;;1.73;1.20;;;13.70;47.70;;;;;;4962744;28;20965;-82
2023/03/07 05:55:28;;;;;;;2.77;1.50;;;13.70;47.80;;;;;;4958328;28;20549;-81
2023/03/07 05:57:56;;;;;;;2.17;1.50;;;13.70;47.60;;;;;;4963389;28;20466;-81
2023/03/07 06:00:25;;;;;;;2.40;1.30;;;13.70;47.60;;;;;;4964683;28;20485;-81
2023/03/07 06:02:52;;;;;;;2.80;1.40;;;13.70;47.70;;;;;;4960880;28;20463;-82
2023/03/07 06:05:20;;;;;;;1.50;1.30;;;13.70;47.70;;;;;;4958958;28;20479;-81
2023/03/07 06:07:51;;;;;;;2.10;1.60;;;13.70;47.60;;;;;;4962033;28;20454;-82
2023/03/07 06:10:19;;;;;;;3.40;1.67;;;13.70;47.60;;;;;;4963023;28;20465;-82
2023/03/07 06:12:51;;;;;;;2.37;1.10;;;13.70;47.70;;;;;;4962512;28;20506;-82
2023/03/07 06:15:19;;;;;;;1.33;1.23;;;13.70;47.70;;;;;;4956619;28;20481;-81
2023/03/07 06:17:47;;;;;;;2.03;1.20;;;13.70;47.60;;;;;;4964918;28;20458;-82
2023/03/07 06:20:15;;;;;;;2.10;1.40;;;13.70;47.70;;;;;;4956100;28;20590;-81
2023/03/07 06:22:43;;;;;;;2.67;1.53;;;13.70;47.60;;;;;;4960391;28;20462;-82
2023/03/07 06:25:14;;;;;;;2.27;1.30;;;13.70;47.50;;;;;;4962219;28;20482;-81
2023/03/07 06:27:42;;;;;;;2.13;1.57;;;13.70;47.60;;;;;;4966112;28;20468;-81
2023/03/07 06:30:12;;;;;;;3.97;1.50;;;13.70;47.60;;;;;;4962048;28;20454;-81
2023/03/07 06:32:40;;;;;;;3.03;1.50;;;13.70;47.50;;;;;;4964682;28;20530;-80
2023/03/07 06:35:09;;;;;;;1.97;1.60;;;13.70;47.60;;;;;;4959817;28;20558;-81
2023/03/07 06:37:37;;;;;;;3.67;1.37;;;13.80;47.60;;;;;;4959681;28;20455;-80
2023/03/07 06:40:08;;;;;;;2.17;1.33;;;13.80;47.60;;;;;;4961483;28;20499;-82
2023/03/07 06:42:36;;;;;;;2.53;1.60;;;13.80;47.50;;;;;;4953784;28;20508;-81
2023/03/07 06:45:05;;;;;;;1.67;1.43;;;13.80;48.20;;;;;;4963540;28;20505;-81
2023/03/07 06:47:34;;;;;;;3.27;2.17;;;13.80;47.50;;;;;;4962342;28;20545;-82
2023/03/07 06:50:02;;;;;;;3.47;2.00;;;13.80;47.60;;;;;;4965129;28;20459;-82
2023/03/07 06:52:31;;;;;;;2.17;1.70;;;13.80;47.50;;;;;;4958667;28;20455;-81
2023/03/07 06:54:59;;;;;;;2.23;1.37;;;13.80;47.60;;;;;;4958300;28;20479;-83
2023/03/07 06:57:28;;;;;;;2.00;1.80;;;13.90;47.60;;;;;;4954194;28;20489;-81
2023/03/07 06:59:56;;;;;;;2.80;1.67;;;13.90;47.50;;;;;;4961313;28;20466;-79
2023/03/07 07:02:25;;;;;;;6.90;1.83;;;13.90;47.60;;;;;;4958583;28;20473;-81
2023/03/07 07:04:56;;;;;;;2.10;1.63;;;13.90;47.50;;;;;;4962758;28;20503;-81
2023/03/07 07:07:27;;;;;;;3.50;2.03;;;13.90;47.40;;;;;;4957701;28;20513;-81
2023/03/07 07:09:55;;;;;;;1.80;1.70;;;14.00;47.50;;;;;;4961670;28;20457;-81
2023/03/07 07:12:23;;;;;;;2.73;1.77;;;14.00;47.40;;;;;;4960427;28;20467;-81
2023/03/07 07:14:51;;;;;;;5.00;1.97;;;14.00;47.40;;;;;;4954589;28;20473;-81
2023/03/07 07:17:19;;;;;;;2.57;1.70;;;14.00;47.40;;;;;;4955679;28;20451;-81
2023/03/07 07:19:47;;;;;;;3.40;1.47;;;14.00;47.40;;;;;;4960060;28;20542;-82
2023/03/07 07:22:17;;;;;;;3.23;1.70;;;14.00;47.50;;;;;;4962296;28;20542;-81
2023/03/07 07:24:45;;;;;;;1.57;1.47;;;14.00;47.40;;;;;;4966357;28;20478;-82
2023/03/07 07:27:13;;;;;;;2.67;1.83;;;14.00;47.50;;;;;;4957484;28;20479;-81
2023/03/07 07:29:41;;;;;;;2.70;1.70;;;14.00;47.60;;;;;;4960059;28;20518;-82
2023/03/07 07:32:10;;;;;;;3.37;1.50;;;14.10;47.50;;;;;;4958329;28;20450;-81
2023/03/07 07:34:38;;;;;;;1.93;1.47;;;14.10;47.50;;;;;;4962693;28;20478;-82
2023/03/07 07:37:05;;;;;;;1.67;1.40;;;14.10;47.60;;;;;;4963397;28;20447;-81
2023/03/07 07:39:35;;;;;;;3.77;1.90;;;14.10;47.50;;;;;;4959722;28;20459;-83
2023/03/07 07:42:03;;;;;;;3.03;1.73;;;14.10;47.50;;;;;;4964598;28;20486;-81
2023/03/07 07:44:31;;;;;;;2.60;1.63;;;14.10;47.50;;;;;;4964511;28;20490;-81
2023/03/07 07:46:59;;;;;;;4.43;1.80;;;14.10;47.60;;;;;;4965294;28;20463;-81
2023/03/07 07:49:28;;;;;;;2.73;1.43;;;14.10;47.70;;;;;;4959847;28;20462;-81
2023/03/07 07:51:56;;;;;;;2.10;1.60;;;14.20;47.70;;;;;;4960235;28;20465;-82
2023/03/07 07:54:24;;;;;;;1.67;1.57;;;14.10;47.60;;;;;;4960532;28;20506;-81
2023/03/07 07:56:54;;;;;;;2.90;1.70;;;14.20;47.80;;;;;;4960300;28;20479;-81
2023/03/07 07:59:22;;;;;;;3.40;1.57;;;14.20;47.60;;;;;;4961204;28;20530;-81
2023/03/07 08:01:50;;;;;;;2.13;1.60;;;14.20;47.60;;;;;;4962569;28;20487;-81
2023/03/07 08:04:18;;;;;;;4.07;1.70;;;14.20;47.70;;;;;;4968725;28;20485;-81
2023/03/07 08:06:46;;;;;;;3.40;1.60;;;14.30;47.60;;;;;;4966733;28;20478;-81
2023/03/07 08:09:14;;;;;;;4.43;1.80;;;14.30;47.70;;;;;;4963292;28;20456;-82
2023/03/07 08:11:42;;;;;;;1.57;1.47;;;14.30;47.60;;;;;;4965093;28;20473;-81
2023/03/07 08:14:12;;;;;;;2.30;1.50;;;14.30;47.60;;;;;;4960555;28;20468;-81
2023/03/07 08:16:40;;;;;;;2.60;1.40;;;14.40;47.60;;;;;;4964618;28;20481;-83
2023/03/07 08:19:09;;;;;;;3.63;1.63;;;14.40;47.60;;;;;;4964827;28;20465;-81
2023/03/07 08:21:37;;;;;;;2.93;1.90;;;14.40;47.60;;;;;;4963242;28;20475;-80
2023/03/07 08:24:06;;;;;;;2.27;1.40;;;14.40;47.60;;;;;;4962618;28;20546;-81
2023/03/07 08:26:34;;;;;;;4.13;1.70;;;14.50;47.60;;;;;;4963199;28;20474;-80
2023/03/07 08:29:02;;;;;;;1.73;1.60;;;14.50;47.50;;;;;;4965465;28;20466;-81
2023/03/07 08:31:31;;;;;;;2.13;1.50;;;14.50;47.60;;;;;;4972509;28;20489;-80
2023/03/07 08:34:00;;;;;;;2.30;1.30;;;14.50;47.50;;;;;;4962311;28;20455;-81
2023/03/07 08:36:28;;;;;;;2.10;1.20;;;14.50;47.50;;;;;;4963464;28;20459;-81
2023/03/07 08:38:56;;;;;;;3.40;1.67;;;14.50;47.60;;;;;;4967249;28;20455;-80
2023/03/07 08:41:24;;;;;;;1.57;1.33;;;14.60;47.50;;;;;;4964783;28;20489;-81
2023/03/07 08:43:51;;;;;;;2.50;1.20;;;14.60;47.40;;;;;;4965275;28;20463;-82
2023/03/07 08:46:19;;;;;;;1.97;1.60;;;14.60;47.40;;;;;;4969785;28;20926;-81
2023/03/07 08:48:49;;;;;;;2.70;1.37;;;14.70;47.50;;;;;;4960987;28;20484;-81
2023/03/07 08:51:17;;;;;;;3.00;1.60;;;14.70;47.40;;;;;;4957857;28;20455;-80
2023/03/07 08:53:45;;;;;;;2.53;1.63;;;14.80;47.40;;;;;;4955574;28;20534;-80
2023/03/07 08:56:14;;;;;;;2.90;1.23;;;14.80;47.40;;;;;;4960379;28;20480;-81
2023/03/07 08:58:42;;;;;;;1.33;1.23;;;14.80;47.40;;;;;;4963907;28;20960;-81
2023/03/07 09:01:11;;;;;;;1.67;1.30;;;14.90;47.40;;;;;;4968168;28;20450;-82
2023/03/07 09:03:39;;;;;;;4.63;1.30;;;14.90;47.30;;;;;;4960136;28;20455;-81
2023/03/07 09:06:11;;;;;;;1.67;1.40;;;14.90;47.30;;;;;;4970116;28;20506;-80
2023/03/07 09:08:39;;;;;;;1.27;1.00;;;15.00;47.30;;;;;;4960138;28;20455;-80
2023/03/07 09:11:07;;;;;;;5.07;1.40;;;15.00;47.30;;;;;;4965165;28;20480;-81
2023/03/07 09:13:35;;;;;;;3.67;1.30;;;15.00;47.30;;;;;;4966294;28;20974;-81
2023/03/07 09:16:18;;;;;;;2.70;1.63;;;15.10;47.40;;;;;;4964266;28;20478;-81
2023/03/07 09:18:46;;;;;;;1.63;1.37;;;15.10;47.30;;;;;;4960953;28;20961;-81
2023/03/07 09:21:16;;;;;;;4.03;1.40;;;15.10;47.40;;;;;;4955689;28;20447;-81
2023/03/07 09:23:44;;;;;;;2.00;1.20;;;15.20;47.40;;;;;;4958936;28;20485;-81
2023/03/07 09:26:12;;;;;;;3.20;1.63;;;15.20;47.30;;;;;;4960049;28;20533;-82
2023/03/07 09:28:40;;;;;;;2.00;1.53;;;15.20;47.60;;;;;;4954079;28;20459;-80
2023/03/07 09:31:08;;;;;;;3.47;1.47;;;15.20;47.30;;;;;;4968866;28;20461;-81
2023/03/07 09:33:37;;;;;;;2.07;1.70;;;15.20;47.30;;;;;;4961224;28;20531;-81
2023/03/07 09:36:06;;;;;;;3.00;2.20;;;15.20;47.40;;;;;;4967552;28;20488;-79
2023/03/07 09:38:36;;;;;;;4.17;1.60;;;15.20;47.40;;;;;;4958519;28;20482;-82
2023/03/07 09:41:08;;;;;;;3.57;2.00;;;15.20;47.40;;;;;;4970307;28;20474;-80
2023/03/07 09:43:41;;;;;;;1.93;1.50;;;15.20;47.40;;;;;;4968471;28;20481;-81
2023/03/07 09:46:11;;;;;;;2.53;2.10;;;15.20;47.60;;;;;;4961025;28;20485;-81
2023/03/07 09:49:03;;;;;;;2.47;2.27;;;15.10;47.60;;;;;;4958611;28;20466;-82
2023/03/07 09:51:36;;;;;;;7.40;2.20;;;15.10;47.80;;;;;;4937321;28;20453;-82
2023/03/07 09:54:06;;;;;;;5.07;2.80;;;15.00;47.80;;;;;;4954205;28;20439;-82
2023/03/07 09:56:37;;;;;;;5.30;2.90;;;15.00;47.80;;;;;;4967548;28;20469;-83
2023/03/07 09:59:12;;;;;;;4.50;2.50;;;15.00;47.90;;;;;;4965047;28;20474;-84
2023/03/07 10:01:51;;;;;;;3.87;2.40;;;14.90;47.80;;;;;;4967341;28;20469;-84
2023/03/07 10:04:22;;;;;;;5.10;2.63;;;15.00;48.20;;;;;;4969220;28;20537;-83
2023/03/07 10:06:53;;;;;;;4.07;2.77;;;15.00;48.20;;;;;;4967675;28;20491;-82
2023/03/07 10:09:24;;;;;;;4.90;2.57;;;15.10;48.30;;;;;;4958219;28;20477;-83
2023/03/07 10:12:18;;;;;;;5.83;2.90;;;15.20;48.20;;;;;;4970821;28;20475;-83
2023/03/07 10:15:05;;;;;;;2.80;2.60;;;15.40;48.20;;;;;;4962381;28;20533;-82
2023/03/07 10:17:43;;;;;;;4.03;2.60;;;15.50;48.20;;;;;;4967713;28;20453;-81
2023/03/07 10:20:28;;;;;;;4.17;3.00;;;15.70;48.00;;;;;;4974862;28;20505;-83
2023/03/07 10:22:59;;;;;;;4.90;2.80;;;15.80;48.00;;;;;;4972461;28;20532;-81
2023/03/07 10:25:29;;;;;;;8.37;2.70;;;15.90;47.70;;;;;;4969765;28;20477;-81
2023/03/07 10:28:01;;;;;;;7.00;3.10;;;16.10;47.70;;;;;;4964144;28;20447;-82
2023/03/07 10:30:31;;;;;;;5.20;2.73;;;16.20;47.60;;;;;;4964467;28;20509;-82
2023/03/07 10:32:59;;;;;;;4.43;3.13;;;16.30;47.70;;;;;;4969615;28;20448;-80
2023/03/07 10:35:37;;;;;;;4.47;2.87;;;16.40;47.60;;;;;;4964506;28;20459;-80
2023/03/07 10:38:09;;;;;;;4.93;2.83;;;16.40;47.30;;;;;;4966852;28;20455;-82
2023/03/07 10:40:41;;;;;;;5.73;2.90;;;16.40;47.40;;;;;;4963216;28;20447;-81
2023/03/07 10:43:22;;;;;;;4.87;3.10;;;16.40;47.30;;;;;;4976512;28;20570;-80
2023/03/07 10:45:51;;;;;;;4.30;2.57;;;16.40;47.30;;;;;;4969232;28;20464;-82
2023/03/07 10:48:19;;;;;;;3.90;2.40;;;16.40;47.40;;;;;;4963165;28;20522;-83
2023/03/07 10:50:51;;;;;;;3.80;2.63;;;16.40;47.40;;;;;;4964739;28;20455;-82
2023/03/07 10:53:22;;;;;;;3.40;2.80;;;16.30;47.40;;;;;;4972570;28;20487;-83
2023/03/07 10:55:52;;;;;;;3.73;2.83;;;16.20;47.50;;;;;;4976057;28;20470;-81
2023/03/07 10:58:22;;;;;;;2.30;2.20;;;16.20;47.40;;;;;;4971301;28;20441;-84
2023/03/07 11:01:15;;;;;;;2.63;2.00;;;16.20;47.70;;;;;;4976289;28;20518;-82
2023/03/07 11:03:45;;;;;;;3.97;2.27;;;16.20;47.80;;;;;;4965052;28;20469;-82
2023/03/07 11:06:29;;;;;;;2.33;2.13;;;16.20;48.00;;;;;;4967517;28;20440;-83
2023/03/07 11:08:57;;;;;;;2.67;2.20;;;16.10;48.00;;;;;;4972517;28;20451;-83
2023/03/07 11:11:31;;;;;;;3.77;2.30;;;16.20;48.20;;;;;;4959549;28;20474;-83
2023/03/07 11:14:06;;;;;;;3.63;2.10;;;16.40;48.20;;;;;;4975393;28;20446;-82
2023/03/07 11:16:41;;;;;;;2.90;2.43;;;16.60;48.10;;;;;;4965559;28;20443;-84
2023/03/07 11:19:31;;;;;;;5.30;2.53;;;16.80;48.00;;;;;;4971393;28;20447;-83
2023/03/07 11:22:01;;;;;;;4.20;2.20;;;17.00;47.70;;;;;;4979574;28;20450;-80
2023/03/07 11:24:29;;;;;;;4.00;2.40;;;17.10;47.40;;;;;;4973093;28;20475;-84
2023/03/07 11:26:59;;;;;;;3.33;2.10;;;17.10;47.20;;;;;;4963131;28;20480;-84
2023/03/07 11:29:28;;;;;;;3.77;2.80;;;17.20;47.10;;;;;;4970401;28;20437;-83
2023/03/07 11:31:59;;;;;;;6.13;2.60;;;17.30;47.10;;;;;;4972090;28;20438;-82
2023/03/07 11:34:38;;;;;;;2.83;2.50;;;17.40;47.00;;;;;;4960421;28;20458;-83
2023/03/07 11:37:27;;;;;;;2.73;2.00;;;17.50;47.00;;;;;;4976425;28;20479;-83
2023/03/07 11:40:03;;;;;;;5.90;2.37;;;17.50;46.80;;;;;;4973307;28;20446;-81
2023/03/07 11:42:34;;;;;;;3.90;2.27;;;17.50;46.80;;;;;;4969608;28;20462;-83
2023/03/07 11:45:06;;;;;;;3.53;2.43;;;17.40;46.80;;;;;;4975505;28;20545;-83
2023/03/07 11:47:42;;;;;;;6.40;2.63;;;17.40;46.70;;;;;;4962612;28;20533;-80
2023/03/07 11:50:16;;;;;;;2.87;2.40;;;17.40;46.90;;;;;;4966708;28;20545;-83
2023/03/07 11:53:15;;;;;;;3.67;1.97;;;17.50;47.00;;;;;;4978573;28;20528;-85
2023/03/07 11:55:47;;;;;;;3.53;2.47;;;17.60;47.00;;;;;;4959326;28;20501;-82
2023/03/07 11:58:33;;;;;;;3.17;2.43;;;17.90;47.50;;;;;;4966047;28;20457;-82
2023/03/07 12:01:07;;;;;;;2.47;2.20;;;18.20;46.70;;;;;;4965757;28;20447;-82
2023/03/07 12:03:59;;;;;;;4.40;2.17;;;18.50;46.30;;;;;;4952277;28;20528;-83
2023/03/07 12:06:35;;;;;;;5.13;2.87;;;18.60;46.10;;;;;;4962862;28;20545;-83
2023/03/07 12:09:17;;;;;;;4.37;3.00;;;19.20;46.40;;;;;;4967520;28;20510;-82
2023/03/07 12:12:04;;;;;;;4.67;3.33;;;20.00;45.70;;;;;;4970613;28;20467;-84
2023/03/07 12:14:37;;;;;;;3.37;3.07;;;20.70;44.60;;;;;;4961999;28;20466;-82
2023/03/07 12:17:11;;;;;;;5.03;3.33;;;21.60;43.10;;;;;;4973166;28;20474;-84
2023/03/07 12:20:02;;;;;;;3.20;2.90;;;22.40;43.30;;;;;;4972461;28;20447;-81
2023/03/07 12:22:31;;;;;;;4.37;3.47;;;23.90;42.30;;;;;;4969910;28;20465;-84
2023/03/07 12:25:03;;;;;;;2.80;2.60;;;25.10;40.40;;;;;;4963905;28;20574;-82
2023/03/07 12:27:32;;;;;;;3.60;3.30;;;26.20;38.80;;;;;;4956356;28;20471;-80
2023/03/07 12:30:04;;;;;;;3.77;3.33;;;26.70;37.20;;;;;;4965933;28;20458;-83
2023/03/07 12:32:32;;;;;;;4.23;3.30;;;26.70;36.20;;;;;;4954512;28;20425;-83
2023/03/07 12:35:05;;;;;;;5.83;3.10;;;26.60;36.30;;;;;;4966107;28;20462;-83
2023/03/07 12:37:36;;;;;;;3.50;3.20;;;26.80;36.50;;;;;;4958418;28;20450;-82
2023/03/07 12:40:05;;;;;;;3.63;3.20;;;27.20;36.40;;;;;;4958582;28;20447;-84
2023/03/07 12:42:36;;;;;;;3.10;2.77;;;27.80;36.10;;;;;;4960260;28;20468;-84
2023/03/07 12:45:09;;;;;;;3.53;3.10;;;28.10;35.10;;;;;;4964298;28;20996;-84
2023/03/07 12:47:48;;;;;;;2.50;2.40;;;28.40;35.10;;;;;;4951782;28;20451;-82
2023/03/07 12:50:19;;;;;;;3.10;2.83;;;29.30;34.50;;;;;;4952787;28;20458;-83
2023/03/07 12:52:48;;;;;;;2.40;2.27;;;30.30;33.30;;;;;;4954978;28;20515;-83
2023/03/07 12:55:23;;;;;;;6.30;2.67;;;31.00;32.80;;;;;;4959436;28;20474;-82
2023/03/07 12:57:56;;;;;;;3.10;2.43;;;30.90;32.10;;;;;;4962151;28;20514;-81
2023/03/07 13:00:25;;;;;;;2.37;2.27;;;30.90;30.70;;;;;;4966375;28;20451;-82